الصفحة الرئيسية
METAR-TAF:

METAR-TAF

مطار :

جزيرة القيامة, تشيلي

دائرة عرض: 27-09S, خط طول: 109-25W, ارتفاع: 51 متر

مراقبة الطقس الحالي

تاريخ ووقت الإصدار 51 دقيقة قبل الساعة 11:00UTC
ريح 14 عقدة من الشمال الغربي
درجة الحرارة 20°درجة مئوية
الرطوبة 83%
ضغط 1019 hPa
الرؤية 10 كم أو أكثر
غيوم متفرقة على ارتفاع 2000 قدم
ملبد بالغيوم على ارتفاع 4000 قدم

METAR: SCIP 141100Z 31014KT 9999 SCT020 OVC040 20/17 Q1019 NOSIG

زمن: 05:51 (11:51 UTC)

توقعات

تاريخ ووقت الإصدار 1ساعة و 9 دقيقة قبل الساعة 10:42UTC
التوقعات صالحة من14 الساعة 12 UTC إلى 15 الساعة 12 UTC
ريح 17 عقدة من الشمال الغربي
غيوم متفرقة على ارتفاع 2500 قدم
غيوم مفككة على ارتفاع 4500 قدم
مؤقت
من 14 الساعة 12 UTC إلى 14 الساعة 20 UTC
الرؤية: 5000 متر
غيوم مفككة على ارتفاع 1700 قدم
ملبد بالغيوم على ارتفاع 3000 قدم
زخات من الأمطار الخفيفة
أصبح
من 14 الساعة 21 UTC إلى 14 الساعة 23 UTC
ريح 7 عقدة من الجنوب الغربي
غيوم متفرقة على ارتفاع 2000 قدم

TAF: SCIP 141042Z 1412/1512 32017KT SCT025 BKN045 TX21/1420Z TN15/1510Z TEMPO 1412/1420 5000 -SHRA BKN017 OVC030 BECMG 1421/1423 22007KT SCT020

أرصاد الطقس والتوقعات من أكثر من 4000 مطار (تقارير الطقس للمطار METAR والتنبؤ بالطقس بالمطارTAF).

المحطات المتاحة هي النقط الصفراء والحمراء على الخريطة.

حرك المؤشر فوق النقطة لمعرفة اسم المحطة.

ثم انقر لمعرفة أرصاد وتوقعات الطقس.

لتغيير الخارطة: اضغط على الأزرار الخضراء مع رمز الصليب الأسود للتكبير. على الزر الأخضر مع شرطة للتصغير، أو على الأسهم الخضراء للخرائط المجاورة.


METAR-TAF: